sensor_id;sensor_type;location;lat;lon;timestamp;P1;durP1;ratioP1;P2;durP2;ratioP2
6117;SDS011;3089;48.202;11.510;2023-07-13T00:00:01;3.67;;;1.70;;
6117;SDS011;3089;48.202;11.510;2023-07-13T00:02:36;4.20;;;2.13;;
6117;SDS011;3089;48.202;11.510;2023-07-13T00:05:04;5.30;;;2.43;;
6117;SDS011;3089;48.202;11.510;2023-07-13T00:07:33;4.80;;;2.40;;
6117;SDS011;3089;48.202;11.510;2023-07-13T00:10:01;3.87;;;1.80;;
6117;SDS011;3089;48.202;11.510;2023-07-13T00:12:31;4.57;;;2.10;;
6117;SDS011;3089;48.202;11.510;2023-07-13T00:15:00;4.10;;;2.10;;
6117;SDS011;3089;48.202;11.510;2023-07-13T00:17:31;6.00;;;2.37;;
6117;SDS011;3089;48.202;11.510;2023-07-13T00:20:00;4.10;;;2.10;;
6117;SDS011;3089;48.202;11.510;2023-07-13T00:22:30;5.43;;;2.30;;
6117;SDS011;3089;48.202;11.510;2023-07-13T00:24:58;4.40;;;2.00;;
6117;SDS011;3089;48.202;11.510;2023-07-13T00:27:26;4.47;;;2.07;;
6117;SDS011;3089;48.202;11.510;2023-07-13T00:29:56;4.03;;;2.13;;
6117;SDS011;3089;48.202;11.510;2023-07-13T00:32:24;8.17;;;2.43;;
6117;SDS011;3089;48.202;11.510;2023-07-13T00:34:52;4.97;;;2.20;;
6117;SDS011;3089;48.202;11.510;2023-07-13T00:37:21;4.07;;;2.07;;
6117;SDS011;3089;48.202;11.510;2023-07-13T00:39:50;5.10;;;2.00;;
6117;SDS011;3089;48.202;11.510;2023-07-13T00:42:17;7.00;;;3.10;;
6117;SDS011;3089;48.202;11.510;2023-07-13T00:45:01;6.50;;;3.20;;
6117;SDS011;3089;48.202;11.510;2023-07-13T00:47:30;12.80;;;4.60;;
6117;SDS011;3089;48.202;11.510;2023-07-13T00:49:58;7.40;;;3.33;;
6117;SDS011;3089;48.202;11.510;2023-07-13T00:52:28;5.47;;;3.07;;
6117;SDS011;3089;48.202;11.510;2023-07-13T00:54:56;8.27;;;2.60;;
6117;SDS011;3089;48.202;11.510;2023-07-13T00:57:26;3.90;;;1.67;;
6117;SDS011;3089;48.202;11.510;2023-07-13T00:59:55;3.47;;;1.57;;
6117;SDS011;3089;48.202;11.510;2023-07-13T01:02:27;5.40;;;2.03;;
6117;SDS011;3089;48.202;11.510;2023-07-13T01:04:56;6.70;;;2.33;;
6117;SDS011;3089;48.202;11.510;2023-07-13T01:07:24;4.07;;;1.70;;
6117;SDS011;3089;48.202;11.510;2023-07-13T01:09:53;4.73;;;2.10;;
6117;SDS011;3089;48.202;11.510;2023-07-13T01:12:21;6.87;;;2.30;;
6117;SDS011;3089;48.202;11.510;2023-07-13T01:14:56;4.70;;;1.80;;
6117;SDS011;3089;48.202;11.510;2023-07-13T01:17:26;3.80;;;1.53;;
6117;SDS011;3089;48.202;11.510;2023-07-13T01:19:55;6.27;;;1.77;;
6117;SDS011;3089;48.202;11.510;2023-07-13T01:22:24;2.80;;;1.40;;
6117;SDS011;3089;48.202;11.510;2023-07-13T01:24:53;5.57;;;1.70;;
6117;SDS011;3089;48.202;11.510;2023-07-13T01:27:22;3.23;;;1.53;;
6117;SDS011;3089;48.202;11.510;2023-07-13T01:29:52;8.10;;;1.70;;
6117;SDS011;3089;48.202;11.510;2023-07-13T01:32:28;5.90;;;2.20;;
6117;SDS011;3089;48.202;11.510;2023-07-13T01:34:57;5.00;;;2.20;;
6117;SDS011;3089;48.202;11.510;2023-07-13T01:37:26;6.10;;;2.73;;
6117;SDS011;3089;48.202;11.510;2023-07-13T01:40:02;4.60;;;2.40;;
6117;SDS011;3089;48.202;11.510;2023-07-13T01:42:30;10.33;;;2.23;;
6117;SDS011;3089;48.202;11.510;2023-07-13T01:44:58;17.87;;;2.63;;
6117;SDS011;3089;48.202;11.510;2023-07-13T01:47:26;10.70;;;2.27;;
6117;SDS011;3089;48.202;11.510;2023-07-13T01:49:55;7.63;;;2.37;;
6117;SDS011;3089;48.202;11.510;2023-07-13T01:52:23;10.80;;;2.67;;
6117;SDS011;3089;48.202;11.510;2023-07-13T01:54:52;4.43;;;2.13;;
6117;SDS011;3089;48.202;11.510;2023-07-13T01:57:20;6.70;;;2.30;;
6117;SDS011;3089;48.202;11.510;2023-07-13T01:59:48;7.80;;;2.30;;
6117;SDS011;3089;48.202;11.510;2023-07-13T02:02:16;6.00;;;2.40;;
6117;SDS011;3089;48.202;11.510;2023-07-13T02:04:44;17.17;;;2.67;;
6117;SDS011;3089;48.202;11.510;2023-07-13T02:07:12;4.37;;;2.20;;
6117;SDS011;3089;48.202;11.510;2023-07-13T02:09:41;3.47;;;1.90;;
6117;SDS011;3089;48.202;11.510;2023-07-13T02:12:10;4.40;;;1.90;;
6117;SDS011;3089;48.202;11.510;2023-07-13T02:14:38;5.23;;;2.33;;
6117;SDS011;3089;48.202;11.510;2023-07-13T02:17:06;9.73;;;3.60;;
6117;SDS011;3089;48.202;11.510;2023-07-13T02:19:34;6.63;;;2.57;;
6117;SDS011;3089;48.202;11.510;2023-07-13T02:22:02;6.83;;;2.60;;
6117;SDS011;3089;48.202;11.510;2023-07-13T02:24:30;6.70;;;2.73;;
6117;SDS011;3089;48.202;11.510;2023-07-13T02:26:58;4.17;;;2.00;;
6117;SDS011;3089;48.202;11.510;2023-07-13T02:29:27;5.13;;;2.17;;
6117;SDS011;3089;48.202;11.510;2023-07-13T02:31:55;4.27;;;1.97;;
6117;SDS011;3089;48.202;11.510;2023-07-13T02:34:23;4.30;;;2.50;;
6117;SDS011;3089;48.202;11.510;2023-07-13T02:36:51;6.23;;;2.27;;
6117;SDS011;3089;48.202;11.510;2023-07-13T02:39:18;5.93;;;2.20;;
6117;SDS011;3089;48.202;11.510;2023-07-13T02:41:46;4.47;;;2.50;;
6117;SDS011;3089;48.202;11.510;2023-07-13T02:44:14;6.10;;;2.07;;
6117;SDS011;3089;48.202;11.510;2023-07-13T02:46:44;4.40;;;2.50;;
6117;SDS011;3089;48.202;11.510;2023-07-13T02:49:12;4.70;;;2.10;;
6117;SDS011;3089;48.202;11.510;2023-07-13T02:51:39;11.43;;;2.83;;
6117;SDS011;3089;48.202;11.510;2023-07-13T02:54:08;5.43;;;2.40;;
6117;SDS011;3089;48.202;11.510;2023-07-13T02:56:37;8.33;;;3.00;;
6117;SDS011;3089;48.202;11.510;2023-07-13T02:59:05;6.40;;;3.07;;
6117;SDS011;3089;48.202;11.510;2023-07-13T03:01:33;7.63;;;2.53;;
6117;SDS011;3089;48.202;11.510;2023-07-13T03:04:03;10.20;;;3.03;;
6117;SDS011;3089;48.202;11.510;2023-07-13T03:06:32;6.07;;;2.67;;
6117;SDS011;3089;48.202;11.510;2023-07-13T03:09:00;5.17;;;2.70;;
6117;SDS011;3089;48.202;11.510;2023-07-13T03:11:28;5.43;;;2.90;;
6117;SDS011;3089;48.202;11.510;2023-07-13T03:13:56;7.60;;;2.80;;
6117;SDS011;3089;48.202;11.510;2023-07-13T03:16:25;5.93;;;2.67;;
6117;SDS011;3089;48.202;11.510;2023-07-13T03:18:52;7.17;;;3.33;;
6117;SDS011;3089;48.202;11.510;2023-07-13T03:21:22;4.87;;;2.87;;
6117;SDS011;3089;48.202;11.510;2023-07-13T03:23:49;8.23;;;3.37;;
6117;SDS011;3089;48.202;11.510;2023-07-13T03:26:18;5.13;;;2.70;;
6117;SDS011;3089;48.202;11.510;2023-07-13T03:28:47;6.10;;;2.73;;
6117;SDS011;3089;48.202;11.510;2023-07-13T03:31:16;6.33;;;2.70;;
6117;SDS011;3089;48.202;11.510;2023-07-13T03:33:45;5.73;;;2.30;;
6117;SDS011;3089;48.202;11.510;2023-07-13T03:36:15;8.30;;;2.93;;
6117;SDS011;3089;48.202;11.510;2023-07-13T03:38:47;8.77;;;2.37;;
6117;SDS011;3089;48.202;11.510;2023-07-13T03:41:15;6.90;;;2.60;;
6117;SDS011;3089;48.202;11.510;2023-07-13T03:43:44;5.33;;;2.20;;
6117;SDS011;3089;48.202;11.510;2023-07-13T03:46:14;6.80;;;2.63;;
6117;SDS011;3089;48.202;11.510;2023-07-13T03:48:43;5.33;;;2.20;;
6117;SDS011;3089;48.202;11.510;2023-07-13T03:51:13;4.10;;;2.27;;
6117;SDS011;3089;48.202;11.510;2023-07-13T03:53:44;5.90;;;2.60;;
6117;SDS011;3089;48.202;11.510;2023-07-13T03:56:14;7.13;;;2.30;;
6117;SDS011;3089;48.202;11.510;2023-07-13T03:58:44;9.30;;;2.50;;
6117;SDS011;3089;48.202;11.510;2023-07-13T04:01:14;5.00;;;2.30;;
6117;SDS011;3089;48.202;11.510;2023-07-13T04:03:43;5.30;;;2.20;;
6117;SDS011;3089;48.202;11.510;2023-07-13T04:06:14;4.30;;;1.73;;
6117;SDS011;3089;48.202;11.510;2023-07-13T04:08:48;3.30;;;1.90;;
6117;SDS011;3089;48.202;11.510;2023-07-13T04:11:19;9.50;;;2.47;;
6117;SDS011;3089;48.202;11.510;2023-07-13T04:13:48;4.30;;;1.90;;
6117;SDS011;3089;48.202;11.510;2023-07-13T04:16:16;7.53;;;2.00;;
6117;SDS011;3089;48.202;11.510;2023-07-13T04:18:46;4.03;;;1.70;;
6117;SDS011;3089;48.202;11.510;2023-07-13T04:21:15;4.90;;;1.57;;
6117;SDS011;3089;48.202;11.510;2023-07-13T04:23:43;6.20;;;2.30;;
6117;SDS011;3089;48.202;11.510;2023-07-13T04:26:11;6.80;;;3.27;;
6117;SDS011;3089;48.202;11.510;2023-07-13T04:28:41;4.93;;;2.27;;
6117;SDS011;3089;48.202;11.510;2023-07-13T04:31:09;3.60;;;1.93;;
6117;SDS011;3089;48.202;11.510;2023-07-13T04:33:36;5.13;;;2.00;;
6117;SDS011;3089;48.202;11.510;2023-07-13T04:36:05;4.07;;;1.97;;
6117;SDS011;3089;48.202;11.510;2023-07-13T04:38:36;4.67;;;1.70;;
6117;SDS011;3089;48.202;11.510;2023-07-13T04:41:04;4.07;;;2.33;;
6117;SDS011;3089;48.202;11.510;2023-07-13T04:43:35;9.87;;;2.83;;
6117;SDS011;3089;48.202;11.510;2023-07-13T04:46:05;5.70;;;2.67;;
6117;SDS011;3089;48.202;11.510;2023-07-13T04:48:35;2.90;;;1.40;;
6117;SDS011;3089;48.202;11.510;2023-07-13T04:51:03;4.70;;;2.03;;
6117;SDS011;3089;48.202;11.510;2023-07-13T04:53:32;7.70;;;2.20;;
6117;SDS011;3089;48.202;11.510;2023-07-13T04:56:00;4.23;;;1.90;;
6117;SDS011;3089;48.202;11.510;2023-07-13T04:58:28;3.70;;;2.00;;
6117;SDS011;3089;48.202;11.510;2023-07-13T05:00:59;4.77;;;1.83;;
6117;SDS011;3089;48.202;11.510;2023-07-13T05:03:29;4.80;;;2.17;;
6117;SDS011;3089;48.202;11.510;2023-07-13T05:05:58;6.90;;;2.23;;
6117;SDS011;3089;48.202;11.510;2023-07-13T05:08:28;8.53;;;2.20;;
6117;SDS011;3089;48.202;11.510;2023-07-13T05:10:56;4.73;;;1.80;;
6117;SDS011;3089;48.202;11.510;2023-07-13T05:13:26;4.23;;;1.80;;
6117;SDS011;3089;48.202;11.510;2023-07-13T05:15:56;4.63;;;2.13;;
6117;SDS011;3089;48.202;11.510;2023-07-13T05:18:25;4.23;;;1.80;;
6117;SDS011;3089;48.202;11.510;2023-07-13T05:20:59;4.20;;;1.90;;
6117;SDS011;3089;48.202;11.510;2023-07-13T05:23:28;5.00;;;1.60;;
6117;SDS011;3089;48.202;11.510;2023-07-13T05:25:57;5.23;;;2.33;;
6117;SDS011;3089;48.202;11.510;2023-07-13T05:28:25;6.27;;;1.70;;
6117;SDS011;3089;48.202;11.510;2023-07-13T05:30:54;5.63;;;2.10;;
6117;SDS011;3089;48.202;11.510;2023-07-13T05:33:22;5.23;;;2.40;;
6117;SDS011;3089;48.202;11.510;2023-07-13T05:35:51;12.50;;;2.30;;
6117;SDS011;3089;48.202;11.510;2023-07-13T05:38:20;4.50;;;1.90;;
6117;SDS011;3089;48.202;11.510;2023-07-13T05:40:48;5.10;;;2.10;;
6117;SDS011;3089;48.202;11.510;2023-07-13T05:43:17;6.00;;;2.53;;
6117;SDS011;3089;48.202;11.510;2023-07-13T05:45:44;5.10;;;2.17;;
6117;SDS011;3089;48.202;11.510;2023-07-13T05:48:12;3.50;;;1.90;;
6117;SDS011;3089;48.202;11.510;2023-07-13T05:50:40;5.27;;;2.20;;
6117;SDS011;3089;48.202;11.510;2023-07-13T05:53:08;7.00;;;2.60;;
6117;SDS011;3089;48.202;11.510;2023-07-13T05:55:37;4.20;;;1.60;;
6117;SDS011;3089;48.202;11.510;2023-07-13T05:58:09;4.40;;;2.17;;
6117;SDS011;3089;48.202;11.510;2023-07-13T06:00:38;5.20;;;2.50;;
6117;SDS011;3089;48.202;11.510;2023-07-13T06:03:06;19.07;;;2.90;;
6117;SDS011;3089;48.202;11.510;2023-07-13T06:05:34;5.40;;;1.97;;
6117;SDS011;3089;48.202;11.510;2023-07-13T06:08:04;6.73;;;2.60;;
6117;SDS011;3089;48.202;11.510;2023-07-13T06:10:32;8.03;;;2.40;;
6117;SDS011;3089;48.202;11.510;2023-07-13T06:13:02;5.23;;;2.20;;
6117;SDS011;3089;48.202;11.510;2023-07-13T06:15:30;5.90;;;2.10;;
6117;SDS011;3089;48.202;11.510;2023-07-13T06:17:58;6.07;;;1.87;;
6117;SDS011;3089;48.202;11.510;2023-07-13T06:20:26;6.27;;;2.00;;
6117;SDS011;3089;48.202;11.510;2023-07-13T06:22:55;4.60;;;2.13;;
6117;SDS011;3089;48.202;11.510;2023-07-13T06:25:23;5.67;;;2.20;;
6117;SDS011;3089;48.202;11.510;2023-07-13T06:27:51;5.37;;;2.23;;
6117;SDS011;3089;48.202;11.510;2023-07-13T06:30:20;4.60;;;1.83;;
6117;SDS011;3089;48.202;11.510;2023-07-13T06:32:48;5.90;;;2.30;;
6117;SDS011;3089;48.202;11.510;2023-07-13T06:35:16;6.20;;;1.77;;
6117;SDS011;3089;48.202;11.510;2023-07-13T06:37:44;5.43;;;2.03;;
6117;SDS011;3089;48.202;11.510;2023-07-13T06:40:13;3.80;;;1.83;;
6117;SDS011;3089;48.202;11.510;2023-07-13T06:42:41;5.10;;;2.10;;
6117;SDS011;3089;48.202;11.510;2023-07-13T06:45:09;7.07;;;2.30;;
6117;SDS011;3089;48.202;11.510;2023-07-13T06:47:38;4.97;;;1.90;;
6117;SDS011;3089;48.202;11.510;2023-07-13T06:50:06;7.93;;;2.13;;
6117;SDS011;3089;48.202;11.510;2023-07-13T06:52:35;6.37;;;1.73;;
6117;SDS011;3089;48.202;11.510;2023-07-13T06:55:03;11.33;;;3.03;;
6117;SDS011;3089;48.202;11.510;2023-07-13T06:57:31;4.93;;;2.10;;
6117;SDS011;3089;48.202;11.510;2023-07-13T06:59:59;7.50;;;2.23;;
6117;SDS011;3089;48.202;11.510;2023-07-13T07:02:27;5.80;;;1.57;;
6117;SDS011;3089;48.202;11.510;2023-07-13T07:04:56;5.33;;;1.93;;
6117;SDS011;3089;48.202;11.510;2023-07-13T07:07:24;4.30;;;1.73;;
6117;SDS011;3089;48.202;11.510;2023-07-13T07:09:52;5.47;;;1.80;;
6117;SDS011;3089;48.202;11.510;2023-07-13T07:12:19;13.43;;;2.17;;
6117;SDS011;3089;48.202;11.510;2023-07-13T07:14:47;5.07;;;1.70;;
6117;SDS011;3089;48.202;11.510;2023-07-13T07:17:15;3.77;;;1.70;;
6117;SDS011;3089;48.202;11.510;2023-07-13T07:19:43;4.10;;;1.63;;
6117;SDS011;3089;48.202;11.510;2023-07-13T07:22:12;5.47;;;1.63;;
6117;SDS011;3089;48.202;11.510;2023-07-13T07:24:40;4.50;;;1.80;;
6117;SDS011;3089;48.202;11.510;2023-07-13T07:27:08;8.63;;;1.40;;
6117;SDS011;3089;48.202;11.510;2023-07-13T07:29:39;9.33;;;1.80;;
6117;SDS011;3089;48.202;11.510;2023-07-13T07:32:12;8.07;;;1.93;;
6117;SDS011;3089;48.202;11.510;2023-07-13T07:35:00;5.40;;;1.60;;
6117;SDS011;3089;48.202;11.510;2023-07-13T07:37:29;6.93;;;1.87;;
6117;SDS011;3089;48.202;11.510;2023-07-13T07:40:00;6.37;;;1.90;;
6117;SDS011;3089;48.202;11.510;2023-07-13T07:42:31;4.80;;;1.70;;
6117;SDS011;3089;48.202;11.510;2023-07-13T07:44:59;4.90;;;1.70;;
6117;SDS011;3089;48.202;11.510;2023-07-13T07:47:28;5.63;;;1.87;;
6117;SDS011;3089;48.202;11.510;2023-07-13T07:49:55;3.73;;;1.40;;
6117;SDS011;3089;48.202;11.510;2023-07-13T07:52:23;5.40;;;1.83;;
6117;SDS011;3089;48.202;11.510;2023-07-13T07:54:52;3.83;;;1.73;;
6117;SDS011;3089;48.202;11.510;2023-07-13T07:57:23;5.77;;;2.63;;
6117;SDS011;3089;48.202;11.510;2023-07-13T07:59:54;3.50;;;1.60;;
6117;SDS011;3089;48.202;11.510;2023-07-13T08:02:25;3.43;;;1.53;;
6117;SDS011;3089;48.202;11.510;2023-07-13T08:04:56;5.10;;;1.83;;
6117;SDS011;3089;48.202;11.510;2023-07-13T08:07:26;3.83;;;1.53;;
6117;SDS011;3089;48.202;11.510;2023-07-13T08:09:55;5.17;;;1.70;;
6117;SDS011;3089;48.202;11.510;2023-07-13T08:12:23;5.67;;;1.87;;
6117;SDS011;3089;48.202;11.510;2023-07-13T08:14:54;6.03;;;1.77;;
6117;SDS011;3089;48.202;11.510;2023-07-13T08:17:24;6.30;;;1.43;;
6117;SDS011;3089;48.202;11.510;2023-07-13T08:19:52;9.30;;;2.03;;
6117;SDS011;3089;48.202;11.510;2023-07-13T08:22:20;9.33;;;1.73;;
6117;SDS011;3089;48.202;11.510;2023-07-13T08:24:48;4.60;;;1.63;;
6117;SDS011;3089;48.202;11.510;2023-07-13T08:27:24;5.00;;;1.70;;
6117;SDS011;3089;48.202;11.510;2023-07-13T08:29:53;4.20;;;1.40;;
6117;SDS011;3089;48.202;11.510;2023-07-13T08:32:21;3.77;;;1.70;;
6117;SDS011;3089;48.202;11.510;2023-07-13T08:34:50;3.37;;;1.53;;
6117;SDS011;3089;48.202;11.510;2023-07-13T08:37:18;5.07;;;1.63;;
6117;SDS011;3089;48.202;11.510;2023-07-13T08:39:46;7.67;;;1.73;;
6117;SDS011;3089;48.202;11.510;2023-07-13T08:42:18;8.63;;;1.90;;
6117;SDS011;3089;48.202;11.510;2023-07-13T08:45:00;5.43;;;1.57;;
6117;SDS011;3089;48.202;11.510;2023-07-13T08:47:35;8.53;;;1.80;;
6117;SDS011;3089;48.202;11.510;2023-07-13T08:50:10;4.37;;;1.40;;
6117;SDS011;3089;48.202;11.510;2023-07-13T08:52:41;6.97;;;1.50;;
6117;SDS011;3089;48.202;11.510;2023-07-13T08:55:11;10.00;;;1.80;;
6117;SDS011;3089;48.202;11.510;2023-07-13T08:57:43;2.73;;;1.10;;
6117;SDS011;3089;48.202;11.510;2023-07-13T09:00:14;5.90;;;1.30;;
6117;SDS011;3089;48.202;11.510;2023-07-13T09:02:45;4.20;;;1.37;;
6117;SDS011;3089;48.202;11.510;2023-07-13T09:05:17;3.23;;;1.37;;
6117;SDS011;3089;48.202;11.510;2023-07-13T09:07:58;4.67;;;1.50;;
6117;SDS011;3089;48.202;11.510;2023-07-13T09:10:36;7.33;;;2.00;;
6117;SDS011;3089;48.202;11.510;2023-07-13T09:13:15;5.50;;;1.33;;
6117;SDS011;3089;48.202;11.510;2023-07-13T09:15:51;3.50;;;1.40;;
6117;SDS011;3089;48.202;11.510;2023-07-13T09:18:21;3.97;;;1.60;;
6117;SDS011;3089;48.202;11.510;2023-07-13T09:20:58;4.03;;;1.20;;
6117;SDS011;3089;48.202;11.510;2023-07-13T09:23:29;4.00;;;1.57;;
6117;SDS011;3089;48.202;11.510;2023-07-13T09:26:00;8.10;;;1.67;;
6117;SDS011;3089;48.202;11.510;2023-07-13T09:28:35;5.37;;;1.73;;
6117;SDS011;3089;48.202;11.510;2023-07-13T09:31:07;3.20;;;1.37;;
6117;SDS011;3089;48.202;11.510;2023-07-13T09:33:40;4.90;;;1.47;;
6117;SDS011;3089;48.202;11.510;2023-07-13T09:36:16;4.40;;;1.60;;
6117;SDS011;3089;48.202;11.510;2023-07-13T09:38:46;2.90;;;1.30;;
6117;SDS011;3089;48.202;11.510;2023-07-13T09:41:19;3.60;;;1.40;;
6117;SDS011;3089;48.202;11.510;2023-07-13T09:44:01;2.90;;;1.10;;
6117;SDS011;3089;48.202;11.510;2023-07-13T09:46:35;5.40;;;1.73;;
6117;SDS011;3089;48.202;11.510;2023-07-13T09:49:03;6.97;;;1.50;;
6117;SDS011;3089;48.202;11.510;2023-07-13T09:51:31;4.67;;;1.50;;
6117;SDS011;3089;48.202;11.510;2023-07-13T09:53:59;4.83;;;1.40;;
6117;SDS011;3089;48.202;11.510;2023-07-13T09:56:28;7.10;;;1.17;;
6117;SDS011;3089;48.202;11.510;2023-07-13T09:58:58;4.77;;;1.60;;
6117;SDS011;3089;48.202;11.510;2023-07-13T10:01:35;4.43;;;1.20;;
6117;SDS011;3089;48.202;11.510;2023-07-13T10:04:10;4.77;;;1.20;;
6117;SDS011;3089;48.202;11.510;2023-07-13T10:06:39;3.47;;;1.20;;
6117;SDS011;3089;48.202;11.510;2023-07-13T10:09:09;4.00;;;1.83;;
6117;SDS011;3089;48.202;11.510;2023-07-13T10:11:39;3.33;;;1.50;;
6117;SDS011;3089;48.202;11.510;2023-07-13T10:14:10;4.93;;;1.57;;
6117;SDS011;3089;48.202;11.510;2023-07-13T10:16:42;3.63;;;1.37;;
6117;SDS011;3089;48.202;11.510;2023-07-13T10:19:12;3.87;;;1.30;;
6117;SDS011;3089;48.202;11.510;2023-07-13T10:21:49;3.13;;;1.03;;
6117;SDS011;3089;48.202;11.510;2023-07-13T10:24:21;8.03;;;1.50;;
6117;SDS011;3089;48.202;11.510;2023-07-13T10:26:52;7.07;;;1.40;;
6117;SDS011;3089;48.202;11.510;2023-07-13T10:29:24;3.57;;;1.20;;
6117;SDS011;3089;48.202;11.510;2023-07-13T10:31:55;5.67;;;1.30;;
6117;SDS011;3089;48.202;11.510;2023-07-13T10:34:24;3.33;;;1.43;;
6117;SDS011;3089;48.202;11.510;2023-07-13T10:36:52;6.00;;;1.20;;
6117;SDS011;3089;48.202;11.510;2023-07-13T10:39:21;4.30;;;1.60;;
6117;SDS011;3089;48.202;11.510;2023-07-13T10:41:54;4.50;;;1.23;;
6117;SDS011;3089;48.202;11.510;2023-07-13T10:44:26;5.90;;;1.63;;
6117;SDS011;3089;48.202;11.510;2023-07-13T10:46:58;3.87;;;1.50;;
6117;SDS011;3089;48.202;11.510;2023-07-13T10:49:29;5.80;;;1.37;;
6117;SDS011;3089;48.202;11.510;2023-07-13T10:51:58;5.70;;;1.57;;
6117;SDS011;3089;48.202;11.510;2023-07-13T10:54:27;3.63;;;1.47;;
6117;SDS011;3089;48.202;11.510;2023-07-13T10:57:08;6.00;;;1.50;;
6117;SDS011;3089;48.202;11.510;2023-07-13T10:59:44;7.60;;;1.63;;
6117;SDS011;3089;48.202;11.510;2023-07-13T11:02:20;6.83;;;2.00;;
6117;SDS011;3089;48.202;11.510;2023-07-13T11:04:53;7.23;;;1.50;;
6117;SDS011;3089;48.202;11.510;2023-07-13T11:07:22;4.67;;;1.40;;
6117;SDS011;3089;48.202;11.510;2023-07-13T11:09:53;4.83;;;1.40;;
6117;SDS011;3089;48.202;11.510;2023-07-13T11:15:28;4.67;;;1.57;;
6117;SDS011;3089;48.202;11.510;2023-07-13T11:18:19;5.43;;;1.40;;
6117;SDS011;3089;48.202;11.510;2023-07-13T11:20:48;4.33;;;1.50;;
6117;SDS011;3089;48.202;11.510;2023-07-13T11:23:21;10.23;;;1.57;;
6117;SDS011;3089;48.202;11.510;2023-07-13T11:25:56;4.33;;;1.10;;
6117;SDS011;3089;48.202;11.510;2023-07-13T11:28:26;4.10;;;1.23;;
6117;SDS011;3089;48.202;11.510;2023-07-13T11:31:01;3.50;;;1.53;;
6117;SDS011;3089;48.202;11.510;2023-07-13T11:33:50;6.50;;;2.23;;
6117;SDS011;3089;48.202;11.510;2023-07-13T11:36:20;5.53;;;1.50;;
6117;SDS011;3089;48.202;11.510;2023-07-13T11:38:54;4.13;;;1.30;;
6117;SDS011;3089;48.202;11.510;2023-07-13T11:41:27;5.63;;;1.60;;
6117;SDS011;3089;48.202;11.510;2023-07-13T11:44:02;4.10;;;1.70;;
6117;SDS011;3089;48.202;11.510;2023-07-13T11:46:34;5.10;;;1.27;;
6117;SDS011;3089;48.202;11.510;2023-07-13T11:49:05;4.50;;;1.33;;
6117;SDS011;3089;48.202;11.510;2023-07-13T11:51:34;4.40;;;1.60;;
6117;SDS011;3089;48.202;11.510;2023-07-13T11:54:04;6.07;;;1.43;;
6117;SDS011;3089;48.202;11.510;2023-07-13T11:56:34;6.40;;;1.40;;
6117;SDS011;3089;48.202;11.510;2023-07-13T11:59:04;6.57;;;1.60;;
6117;SDS011;3089;48.202;11.510;2023-07-13T12:01:34;5.40;;;1.40;;
6117;SDS011;3089;48.202;11.510;2023-07-13T12:04:12;3.77;;;1.40;;
6117;SDS011;3089;48.202;11.510;2023-07-13T12:06:53;4.37;;;1.20;;
6117;SDS011;3089;48.202;11.510;2023-07-13T12:09:22;2.60;;;1.17;;
6117;SDS011;3089;48.202;11.510;2023-07-13T12:11:52;3.87;;;1.27;;
6117;SDS011;3089;48.202;11.510;2023-07-13T12:14:20;4.87;;;1.30;;
6117;SDS011;3089;48.202;11.510;2023-07-13T12:16:51;5.40;;;1.40;;
6117;SDS011;3089;48.202;11.510;2023-07-13T12:19:21;4.57;;;1.47;;
6117;SDS011;3089;48.202;11.510;2023-07-13T12:21:53;4.20;;;1.77;;
6117;SDS011;3089;48.202;11.510;2023-07-13T12:24:22;4.10;;;1.37;;
6117;SDS011;3089;48.202;11.510;2023-07-13T12:26:52;4.77;;;1.60;;
6117;SDS011;3089;48.202;11.510;2023-07-13T12:29:21;5.57;;;1.90;;
6117;SDS011;3089;48.202;11.510;2023-07-13T12:31:49;4.10;;;1.40;;
6117;SDS011;3089;48.202;11.510;2023-07-13T12:34:19;2.77;;;1.03;;
6117;SDS011;3089;48.202;11.510;2023-07-13T12:36:50;4.63;;;1.87;;
6117;SDS011;3089;48.202;11.510;2023-07-13T12:39:20;3.23;;;1.10;;
6117;SDS011;3089;48.202;11.510;2023-07-13T12:41:50;3.50;;;1.30;;
6117;SDS011;3089;48.202;11.510;2023-07-13T12:44:22;3.53;;;1.20;;
6117;SDS011;3089;48.202;11.510;2023-07-13T12:46:55;3.70;;;1.23;;
6117;SDS011;3089;48.202;11.510;2023-07-13T12:49:28;4.37;;;1.20;;
6117;SDS011;3089;48.202;11.510;2023-07-13T12:52:01;5.80;;;1.30;;
6117;SDS011;3089;48.202;11.510;2023-07-13T12:54:31;3.30;;;1.30;;
6117;SDS011;3089;48.202;11.510;2023-07-13T12:56:59;8.23;;;1.27;;
6117;SDS011;3089;48.202;11.510;2023-07-13T12:59:30;4.53;;;1.37;;
6117;SDS011;3089;48.202;11.510;2023-07-13T13:02:08;4.50;;;1.20;;
6117;SDS011;3089;48.202;11.510;2023-07-13T13:04:51;3.23;;;0.87;;
6117;SDS011;3089;48.202;11.510;2023-07-13T13:07:21;3.07;;;1.27;;
6117;SDS011;3089;48.202;11.510;2023-07-13T13:09:49;5.30;;;1.43;;
6117;SDS011;3089;48.202;11.510;2023-07-13T13:12:17;3.30;;;1.30;;
6117;SDS011;3089;48.202;11.510;2023-07-13T13:14:44;4.80;;;1.47;;
6117;SDS011;3089;48.202;11.510;2023-07-13T13:17:16;8.73;;;1.43;;
6117;SDS011;3089;48.202;11.510;2023-07-13T13:19:46;4.57;;;1.60;;
6117;SDS011;3089;48.202;11.510;2023-07-13T13:22:16;3.10;;;1.13;;
6117;SDS011;3089;48.202;11.510;2023-07-13T13:24:44;3.63;;;1.30;;
6117;SDS011;3089;48.202;11.510;2023-07-13T13:27:14;6.13;;;1.33;;
6117;SDS011;3089;48.202;11.510;2023-07-13T13:29:44;4.07;;;1.40;;
6117;SDS011;3089;48.202;11.510;2023-07-13T13:32:13;2.57;;;1.07;;
6117;SDS011;3089;48.202;11.510;2023-07-13T13:34:42;7.20;;;2.60;;
6117;SDS011;3089;48.202;11.510;2023-07-13T13:37:15;4.77;;;1.37;;
6117;SDS011;3089;48.202;11.510;2023-07-13T13:39:47;5.40;;;1.10;;
6117;SDS011;3089;48.202;11.510;2023-07-13T13:42:33;3.23;;;1.00;;
6117;SDS011;3089;48.202;11.510;2023-07-13T13:45:01;7.03;;;1.50;;
6117;SDS011;3089;48.202;11.510;2023-07-13T13:47:30;4.27;;;1.00;;
6117;SDS011;3089;48.202;11.510;2023-07-13T13:50:01;2.93;;;1.20;;
6117;SDS011;3089;48.202;11.510;2023-07-13T13:52:30;11.63;;;1.60;;
6117;SDS011;3089;48.202;11.510;2023-07-13T13:54:58;5.43;;;1.17;;
6117;SDS011;3089;48.202;11.510;2023-07-13T13:57:26;4.60;;;1.20;;
6117;SDS011;3089;48.202;11.510;2023-07-13T13:59:55;4.00;;;1.10;;
6117;SDS011;3089;48.202;11.510;2023-07-13T14:02:23;2.80;;;1.20;;
6117;SDS011;3089;48.202;11.510;2023-07-13T14:04:54;3.03;;;1.00;;
6117;SDS011;3089;48.202;11.510;2023-07-13T14:07:24;3.90;;;1.10;;
6117;SDS011;3089;48.202;11.510;2023-07-13T14:09:54;3.63;;;1.43;;
6117;SDS011;3089;48.202;11.510;2023-07-13T14:12:26;3.93;;;1.20;;
6117;SDS011;3089;48.202;11.510;2023-07-13T14:14:56;4.10;;;1.43;;
6117;SDS011;3089;48.202;11.510;2023-07-13T14:17:25;9.10;;;1.20;;
6117;SDS011;3089;48.202;11.510;2023-07-13T14:19:54;5.50;;;1.37;;
6117;SDS011;3089;48.202;11.510;2023-07-13T14:22:24;5.73;;;1.13;;
6117;SDS011;3089;48.202;11.510;2023-07-13T14:24:53;4.03;;;1.10;;
6117;SDS011;3089;48.202;11.510;2023-07-13T14:27:23;4.67;;;1.10;;
6117;SDS011;3089;48.202;11.510;2023-07-13T14:29:52;4.63;;;1.40;;
6117;SDS011;3089;48.202;11.510;2023-07-13T14:32:20;4.70;;;1.47;;
6117;SDS011;3089;48.202;11.510;2023-07-13T14:34:47;5.10;;;1.20;;
6117;SDS011;3089;48.202;11.510;2023-07-13T14:37:15;4.10;;;1.27;;
6117;SDS011;3089;48.202;11.510;2023-07-13T14:39:43;6.63;;;1.67;;
6117;SDS011;3089;48.202;11.510;2023-07-13T14:42:16;3.43;;;1.40;;
6117;SDS011;3089;48.202;11.510;2023-07-13T14:44:44;3.37;;;1.23;;
6117;SDS011;3089;48.202;11.510;2023-07-13T14:47:11;5.50;;;1.33;;
6117;SDS011;3089;48.202;11.510;2023-07-13T14:49:40;3.90;;;1.50;;
6117;SDS011;3089;48.202;11.510;2023-07-13T14:52:12;3.67;;;1.30;;
6117;SDS011;3089;48.202;11.510;2023-07-13T14:54:41;4.60;;;1.57;;
6117;SDS011;3089;48.202;11.510;2023-07-13T14:57:10;4.37;;;1.67;;
6117;SDS011;3089;48.202;11.510;2023-07-13T14:59:40;3.00;;;1.10;;
6117;SDS011;3089;48.202;11.510;2023-07-13T15:02:23;5.67;;;1.23;;
6117;SDS011;3089;48.202;11.510;2023-07-13T15:04:56;5.27;;;1.33;;
6117;SDS011;3089;48.202;11.510;2023-07-13T15:07:24;4.00;;;1.47;;
6117;SDS011;3089;48.202;11.510;2023-07-13T15:09:52;3.27;;;1.20;;
6117;SDS011;3089;48.202;11.510;2023-07-13T15:12:20;7.30;;;1.70;;
6117;SDS011;3089;48.202;11.510;2023-07-13T15:14:50;3.90;;;1.40;;
6117;SDS011;3089;48.202;11.510;2023-07-13T15:17:21;5.90;;;1.20;;
6117;SDS011;3089;48.202;11.510;2023-07-13T15:19:54;5.97;;;1.73;;